sensor_id;sensor_type;location;lat;lon;timestamp;P1;P2;P0
76421;PMS5003;65254;52.354;13.614;2022-12-11T00:00:00;12;11;
76421;PMS5003;65254;52.354;13.614;2022-12-11T00:04:00;11;10;
76421;PMS5003;65254;52.354;13.614;2022-12-11T00:08:00;12;11;
76421;PMS5003;65254;52.354;13.614;2022-12-11T00:12:00;12;11;
76421;PMS5003;65254;52.354;13.614;2022-12-11T00:16:00;11;10;
76421;PMS5003;65254;52.354;13.614;2022-12-11T00:20:00;12;11;
76421;PMS5003;65254;52.354;13.614;2022-12-11T00:24:00;12;11;
76421;PMS5003;65254;52.354;13.614;2022-12-11T00:28:00;12;11;
76421;PMS5003;65254;52.354;13.614;2022-12-11T00:32:00;13;12;
76421;PMS5003;65254;52.354;13.614;2022-12-11T00:36:00;13;12;
76421;PMS5003;65254;52.354;13.614;2022-12-11T00:40:00;12;11;
76421;PMS5003;65254;52.354;13.614;2022-12-11T00:44:00;12;11;
76421;PMS5003;65254;52.354;13.614;2022-12-11T00:48:00;12;11;
76421;PMS5003;65254;52.354;13.614;2022-12-11T00:52:00;13;12;
76421;PMS5003;65254;52.354;13.614;2022-12-11T00:56:00;13;12;
76421;PMS5003;65254;52.354;13.614;2022-12-11T01:00:00;13;12;
76421;PMS5003;65254;52.354;13.614;2022-12-11T01:04:00;14;13;
76421;PMS5003;65254;52.354;13.614;2022-12-11T01:08:00;14;13;
76421;PMS5003;65254;52.354;13.614;2022-12-11T01:12:00;15;13;
76421;PMS5003;65254;52.354;13.614;2022-12-11T01:16:05;17;15;
76421;PMS5003;65254;52.354;13.614;2022-12-11T01:20:00;15;14;
76421;PMS5003;65254;52.354;13.614;2022-12-11T01:24:00;18;16;
76421;PMS5003;65254;52.354;13.614;2022-12-11T01:28:00;16;14;
76421;PMS5003;65254;52.354;13.614;2022-12-11T01:32:00;18;16;
76421;PMS5003;65254;52.354;13.614;2022-12-11T01:36:00;17;15;
76421;PMS5003;65254;52.354;13.614;2022-12-11T01:40:01;15;14;
76421;PMS5003;65254;52.354;13.614;2022-12-11T01:44:03;18;16;
76421;PMS5003;65254;52.354;13.614;2022-12-11T01:48:04;17;15;
76421;PMS5003;65254;52.354;13.614;2022-12-11T01:52:02;17;15;
76421;PMS5003;65254;52.354;13.614;2022-12-11T01:56:01;18;16;
76421;PMS5003;65254;52.354;13.614;2022-12-11T02:00:00;17;15;
76421;PMS5003;65254;52.354;13.614;2022-12-11T02:04:01;17;15;
76421;PMS5003;65254;52.354;13.614;2022-12-11T02:08:01;15;14;
76421;PMS5003;65254;52.354;13.614;2022-12-11T02:12:01;17;15;
76421;PMS5003;65254;52.354;13.614;2022-12-11T02:16:05;17;15;
76421;PMS5003;65254;52.354;13.614;2022-12-11T02:20:06;15;14;
76421;PMS5003;65254;52.354;13.614;2022-12-11T02:24:15;17;15;
76421;PMS5003;65254;52.354;13.614;2022-12-11T02:28:15;18;16;
76421;PMS5003;65254;52.354;13.614;2022-12-11T02:32:03;19;17;
76421;PMS5003;65254;52.354;13.614;2022-12-11T02:36:02;18;16;
76421;PMS5003;65254;52.354;13.614;2022-12-11T02:40:00;19;17;
76421;PMS5003;65254;52.354;13.614;2022-12-11T02:44:01;19;17;
76421;PMS5003;65254;52.354;13.614;2022-12-11T02:48:02;19;17;
76421;PMS5003;65254;52.354;13.614;2022-12-11T02:52:02;17;15;
76421;PMS5003;65254;52.354;13.614;2022-12-11T02:56:04;19;17;
76421;PMS5003;65254;52.354;13.614;2022-12-11T03:00:00;18;16;
76421;PMS5003;65254;52.354;13.614;2022-12-11T03:04:00;18;16;
76421;PMS5003;65254;52.354;13.614;2022-12-11T03:08:01;18;16;
76421;PMS5003;65254;52.354;13.614;2022-12-11T03:12:00;17;15;
76421;PMS5003;65254;52.354;13.614;2022-12-11T03:16:09;17;15;
76421;PMS5003;65254;52.354;13.614;2022-12-11T03:20:05;18;16;
76421;PMS5003;65254;52.354;13.614;2022-12-11T03:24:02;18;16;
76421;PMS5003;65254;52.354;13.614;2022-12-11T03:28:04;18;16;
76421;PMS5003;65254;52.354;13.614;2022-12-11T03:32:05;18;16;
76421;PMS5003;65254;52.354;13.614;2022-12-11T03:36:04;17;15;
76421;PMS5003;65254;52.354;13.614;2022-12-11T03:40:04;18;16;
76421;PMS5003;65254;52.354;13.614;2022-12-11T03:44:00;19;17;
76421;PMS5003;65254;52.354;13.614;2022-12-11T03:48:01;18;16;
76421;PMS5003;65254;52.354;13.614;2022-12-11T03:52:01;19;17;
76421;PMS5003;65254;52.354;13.614;2022-12-11T03:56:01;18;16;
76421;PMS5003;65254;52.354;13.614;2022-12-11T04:00:00;18;16;
76421;PMS5003;65254;52.354;13.614;2022-12-11T04:04:00;18;16;
76421;PMS5003;65254;52.354;13.614;2022-12-11T04:08:01;17;15;
76421;PMS5003;65254;52.354;13.614;2022-12-11T04:12:00;17;15;
76421;PMS5003;65254;52.354;13.614;2022-12-11T04:16:00;19;17;
76421;PMS5003;65254;52.354;13.614;2022-12-11T04:20:00;19;17;
76421;PMS5003;65254;52.354;13.614;2022-12-11T04:24:00;18;16;
76421;PMS5003;65254;52.354;13.614;2022-12-11T04:28:00;19;17;
76421;PMS5003;65254;52.354;13.614;2022-12-11T04:32:00;18;16;
76421;PMS5003;65254;52.354;13.614;2022-12-11T04:36:00;19;17;
76421;PMS5003;65254;52.354;13.614;2022-12-11T04:40:00;19;17;
76421;PMS5003;65254;52.354;13.614;2022-12-11T04:44:00;19;17;
76421;PMS5003;65254;52.354;13.614;2022-12-11T04:48:00;19;17;
76421;PMS5003;65254;52.354;13.614;2022-12-11T04:52:00;20;18;
76421;PMS5003;65254;52.354;13.614;2022-12-11T04:56:00;18;16;
76421;PMS5003;65254;52.354;13.614;2022-12-11T05:00:00;18;16;
76421;PMS5003;65254;52.354;13.614;2022-12-11T05:04:00;19;17;
76421;PMS5003;65254;52.354;13.614;2022-12-11T05:08:00;18;16;
76421;PMS5003;65254;52.354;13.614;2022-12-11T05:12:00;19;17;
76421;PMS5003;65254;52.354;13.614;2022-12-11T05:16:02;19;17;
76421;PMS5003;65254;52.354;13.614;2022-12-11T05:20:00;19;17;
76421;PMS5003;65254;52.354;13.614;2022-12-11T05:24:00;19;17;
76421;PMS5003;65254;52.354;13.614;2022-12-11T05:28:00;19;17;
76421;PMS5003;65254;52.354;13.614;2022-12-11T05:32:00;19;17;
76421;PMS5003;65254;52.354;13.614;2022-12-11T05:36:00;18;16;
76421;PMS5003;65254;52.354;13.614;2022-12-11T05:40:00;18;16;
76421;PMS5003;65254;52.354;13.614;2022-12-11T05:44:00;18;16;
76421;PMS5003;65254;52.354;13.614;2022-12-11T05:48:00;16;14;
76421;PMS5003;65254;52.354;13.614;2022-12-11T05:52:00;16;14;
76421;PMS5003;65254;52.354;13.614;2022-12-11T05:56:01;15;14;
76421;PMS5003;65254;52.354;13.614;2022-12-11T06:00:00;17;15;
76421;PMS5003;65254;52.354;13.614;2022-12-11T06:04:01;15;14;
76421;PMS5003;65254;52.354;13.614;2022-12-11T06:08:00;14;13;
76421;PMS5003;65254;52.354;13.614;2022-12-11T06:12:00;14;13;
76421;PMS5003;65254;52.354;13.614;2022-12-11T06:16:00;14;13;
76421;PMS5003;65254;52.354;13.614;2022-12-11T06:20:00;14;13;
76421;PMS5003;65254;52.354;13.614;2022-12-11T06:24:02;14;13;
76421;PMS5003;65254;52.354;13.614;2022-12-11T06:28:00;15;14;
76421;PMS5003;65254;52.354;13.614;2022-12-11T06:32:00;17;15;
76421;PMS5003;65254;52.354;13.614;2022-12-11T06:36:00;15;14;
76421;PMS5003;65254;52.354;13.614;2022-12-11T06:40:00;14;13;
76421;PMS5003;65254;52.354;13.614;2022-12-11T06:44:00;17;15;
76421;PMS5003;65254;52.354;13.614;2022-12-11T06:48:00;15;14;
76421;PMS5003;65254;52.354;13.614;2022-12-11T06:52:00;17;15;
76421;PMS5003;65254;52.354;13.614;2022-12-11T06:56:01;14;13;
76421;PMS5003;65254;52.354;13.614;2022-12-11T07:00:00;17;15;
76421;PMS5003;65254;52.354;13.614;2022-12-11T07:04:00;16;14;
76421;PMS5003;65254;52.354;13.614;2022-12-11T07:08:00;17;15;
76421;PMS5003;65254;52.354;13.614;2022-12-11T07:12:00;17;15;
76421;PMS5003;65254;52.354;13.614;2022-12-11T07:16:01;14;13;
76421;PMS5003;65254;52.354;13.614;2022-12-11T07:20:00;14;13;
76421;PMS5003;65254;52.354;13.614;2022-12-11T07:24:00;14;13;
76421;PMS5003;65254;52.354;13.614;2022-12-11T07:28:00;12;11;
76421;PMS5003;65254;52.354;13.614;2022-12-11T07:32:00;13;12;
76421;PMS5003;65254;52.354;13.614;2022-12-11T07:36:01;17;15;
76421;PMS5003;65254;52.354;13.614;2022-12-11T07:40:00;13;12;
76421;PMS5003;65254;52.354;13.614;2022-12-11T07:44:00;18;16;
76421;PMS5003;65254;52.354;13.614;2022-12-11T07:48:00;13;12;
76421;PMS5003;65254;52.354;13.614;2022-12-11T07:52:00;14;13;
76421;PMS5003;65254;52.354;13.614;2022-12-11T07:56:00;13;12;
76421;PMS5003;65254;52.354;13.614;2022-12-11T08:00:00;14;13;
76421;PMS5003;65254;52.354;13.614;2022-12-11T08:04:01;13;12;
76421;PMS5003;65254;52.354;13.614;2022-12-11T08:08:00;14;13;
76421;PMS5003;65254;52.354;13.614;2022-12-11T08:12:00;13;12;
76421;PMS5003;65254;52.354;13.614;2022-12-11T08:16:02;17;15;
76421;PMS5003;65254;52.354;13.614;2022-12-11T08:20:00;16;14;
76421;PMS5003;65254;52.354;13.614;2022-12-11T08:24:00;14;13;
76421;PMS5003;65254;52.354;13.614;2022-12-11T08:28:00;13;12;
76421;PMS5003;65254;52.354;13.614;2022-12-11T08:32:00;14;13;
76421;PMS5003;65254;52.354;13.614;2022-12-11T08:36:01;12;11;
76421;PMS5003;65254;52.354;13.614;2022-12-11T08:40:00;13;12;
76421;PMS5003;65254;52.354;13.614;2022-12-11T08:44:00;13;12;
76421;PMS5003;65254;52.354;13.614;2022-12-11T08:48:00;12;11;
76421;PMS5003;65254;52.354;13.614;2022-12-11T08:52:01;14;13;
76421;PMS5003;65254;52.354;13.614;2022-12-11T08:56:01;13;12;
76421;PMS5003;65254;52.354;13.614;2022-12-11T09:00:00;13;12;
76421;PMS5003;65254;52.354;13.614;2022-12-11T09:04:00;13;12;
76421;PMS5003;65254;52.354;13.614;2022-12-11T09:08:00;13;12;
76421;PMS5003;65254;52.354;13.614;2022-12-11T09:12:01;11;10;
76421;PMS5003;65254;52.354;13.614;2022-12-11T09:16:02;12;11;
76421;PMS5003;65254;52.354;13.614;2022-12-11T09:20:00;12;11;
76421;PMS5003;65254;52.354;13.614;2022-12-11T09:24:00;14;13;
76421;PMS5003;65254;52.354;13.614;2022-12-11T09:28:00;12;11;
76421;PMS5003;65254;52.354;13.614;2022-12-11T09:32:00;12;11;
76421;PMS5003;65254;52.354;13.614;2022-12-11T09:36:01;13;12;
76421;PMS5003;65254;52.354;13.614;2022-12-11T09:40:09;12;11;
76421;PMS5003;65254;52.354;13.614;2022-12-11T09:44:07;12;11;
76421;PMS5003;65254;52.354;13.614;2022-12-11T09:48:00;12;11;
76421;PMS5003;65254;52.354;13.614;2022-12-11T09:52:07;11;10;
76421;PMS5003;65254;52.354;13.614;2022-12-11T09:56:05;12;11;
76421;PMS5003;65254;52.354;13.614;2022-12-11T10:00:15;14;13;
76421;PMS5003;65254;52.354;13.614;2022-12-11T10:04:17;13;12;
76421;PMS5003;65254;52.354;13.614;2022-12-11T10:08:05;12;11;
76421;PMS5003;65254;52.354;13.614;2022-12-11T10:12:07;12;11;
76421;PMS5003;65254;52.354;13.614;2022-12-11T10:16:06;12;11;
76421;PMS5003;65254;52.354;13.614;2022-12-11T10:20:09;17;15;
76421;PMS5003;65254;52.354;13.614;2022-12-11T10:24:03;13;12;
76421;PMS5003;65254;52.354;13.614;2022-12-11T10:28:09;13;12;
76421;PMS5003;65254;52.354;13.614;2022-12-11T10:32:00;13;12;
76421;PMS5003;65254;52.354;13.614;2022-12-11T10:36:00;13;12;
76421;PMS5003;65254;52.354;13.614;2022-12-11T10:40:00;12;11;
76421;PMS5003;65254;52.354;13.614;2022-12-11T10:44:00;14;13;
76421;PMS5003;65254;52.354;13.614;2022-12-11T10:48:02;12;11;
76421;PMS5003;65254;52.354;13.614;2022-12-11T10:52:00;14;13;
76421;PMS5003;65254;52.354;13.614;2022-12-11T10:56:01;14;13;
76421;PMS5003;65254;52.354;13.614;2022-12-11T11:00:02;14;13;
76421;PMS5003;65254;52.354;13.614;2022-12-11T11:04:02;14;13;
76421;PMS5003;65254;52.354;13.614;2022-12-11T11:08:02;13;12;
76421;PMS5003;65254;52.354;13.614;2022-12-11T11:12:19;13;12;
76421;PMS5003;65254;52.354;13.614;2022-12-11T11:16:03;17;15;
76421;PMS5003;65254;52.354;13.614;2022-12-11T11:20:11;15;14;
76421;PMS5003;65254;52.354;13.614;2022-12-11T11:24:00;14;13;
76421;PMS5003;65254;52.354;13.614;2022-12-11T11:28:02;14;13;
76421;PMS5003;65254;52.354;13.614;2022-12-11T11:32:14;14;13;
76421;PMS5003;65254;52.354;13.614;2022-12-11T11:36:01;15;14;
76421;PMS5003;65254;52.354;13.614;2022-12-11T11:40:07;14;13;
76421;PMS5003;65254;52.354;13.614;2022-12-11T11:44:04;13;12;
76421;PMS5003;65254;52.354;13.614;2022-12-11T11:48:09;14;13;
76421;PMS5003;65254;52.354;13.614;2022-12-11T11:52:04;14;13;
76421;PMS5003;65254;52.354;13.614;2022-12-11T11:56:05;15;14;
76421;PMS5003;65254;52.354;13.614;2022-12-11T12:00:04;15;14;
76421;PMS5003;65254;52.354;13.614;2022-12-11T12:04:01;13;12;
76421;PMS5003;65254;52.354;13.614;2022-12-11T12:08:07;17;15;
76421;PMS5003;65254;52.354;13.614;2022-12-11T12:12:07;14;13;
76421;PMS5003;65254;52.354;13.614;2022-12-11T12:16:00;14;13;
76421;PMS5003;65254;52.354;13.614;2022-12-11T12:20:10;14;13;
76421;PMS5003;65254;52.354;13.614;2022-12-11T12:24:07;14;13;
76421;PMS5003;65254;52.354;13.614;2022-12-11T12:28:09;13;12;
76421;PMS5003;65254;52.354;13.614;2022-12-11T12:32:07;14;13;
76421;PMS5003;65254;52.354;13.614;2022-12-11T12:36:16;14;13;
76421;PMS5003;65254;52.354;13.614;2022-12-11T12:40:10;13;12;
76421;PMS5003;65254;52.354;13.614;2022-12-11T12:44:11;13;12;
76421;PMS5003;65254;52.354;13.614;2022-12-11T12:48:00;14;13;
76421;PMS5003;65254;52.354;13.614;2022-12-11T12:52:01;14;13;
76421;PMS5003;65254;52.354;13.614;2022-12-11T12:56:00;14;13;
76421;PMS5003;65254;52.354;13.614;2022-12-11T13:00:00;14;13;
76421;PMS5003;65254;52.354;13.614;2022-12-11T13:04:02;14;13;
76421;PMS5003;65254;52.354;13.614;2022-12-11T13:08:03;16;14;
76421;PMS5003;65254;52.354;13.614;2022-12-11T13:12:11;15;14;
76421;PMS5003;65254;52.354;13.614;2022-12-11T13:20:13;14;13;
76421;PMS5003;65254;52.354;13.614;2022-12-11T13:24:12;15;14;
76421;PMS5003;65254;52.354;13.614;2022-12-11T13:28:05;15;14;
76421;PMS5003;65254;52.354;13.614;2022-12-11T13:32:04;17;15;
76421;PMS5003;65254;52.354;13.614;2022-12-11T13:36:15;17;15;
76421;PMS5003;65254;52.354;13.614;2022-12-11T13:40:03;15;14;
76421;PMS5003;65254;52.354;13.614;2022-12-11T13:44:01;15;14;
76421;PMS5003;65254;52.354;13.614;2022-12-11T13:48:00;15;14;
76421;PMS5003;65254;52.354;13.614;2022-12-11T13:52:00;17;15;
76421;PMS5003;65254;52.354;13.614;2022-12-11T13:56:02;15;13;
76421;PMS5003;65254;52.354;13.614;2022-12-11T14:00:00;15;14;
76421;PMS5003;65254;52.354;13.614;2022-12-11T14:04:02;17;15;
76421;PMS5003;65254;52.354;13.614;2022-12-11T14:08:04;15;14;
76421;PMS5003;65254;52.354;13.614;2022-12-11T14:12:01;15;14;
76421;PMS5003;65254;52.354;13.614;2022-12-11T14:16:01;18;16;
76421;PMS5003;65254;52.354;13.614;2022-12-11T14:20:02;20;18;
76421;PMS5003;65254;52.354;13.614;2022-12-11T14:24:02;17;15;
76421;PMS5003;65254;52.354;13.614;2022-12-11T14:28:00;29;26;
76421;PMS5003;65254;52.354;13.614;2022-12-11T14:32:02;34;30;
76421;PMS5003;65254;52.354;13.614;2022-12-11T14:36:00;21;19;
76421;PMS5003;65254;52.354;13.614;2022-12-11T14:40:03;18;16;
76421;PMS5003;65254;52.354;13.614;2022-12-11T14:44:03;19;17;
76421;PMS5003;65254;52.354;13.614;2022-12-11T14:48:01;24;21;
76421;PMS5003;65254;52.354;13.614;2022-12-11T14:52:02;21;19;
76421;PMS5003;65254;52.354;13.614;2022-12-11T14:56:02;20;18;
76421;PMS5003;65254;52.354;13.614;2022-12-11T15:00:00;21;19;
76421;PMS5003;65254;52.354;13.614;2022-12-11T15:04:01;21;19;
76421;PMS5003;65254;52.354;13.614;2022-12-11T15:08:02;22;20;
76421;PMS5003;65254;52.354;13.614;2022-12-11T15:12:08;22;20;
76421;PMS5003;65254;52.354;13.614;2022-12-11T15:16:00;24;22;
76421;PMS5003;65254;52.354;13.614;2022-12-11T15:20:04;24;22;
76421;PMS5003;65254;52.354;13.614;2022-12-11T15:24:02;18;16;
76421;PMS5003;65254;52.354;13.614;2022-12-11T15:28:00;35;31;
76421;PMS5003;65254;52.354;13.614;2022-12-11T15:32:03;20;18;
76421;PMS5003;65254;52.354;13.614;2022-12-11T15:36:02;20;18;
76421;PMS5003;65254;52.354;13.614;2022-12-11T15:40:01;20;18;
76421;PMS5003;65254;52.354;13.614;2022-12-11T15:44:02;21;19;
76421;PMS5003;65254;52.354;13.614;2022-12-11T15:48:00;19;17;
76421;PMS5003;65254;52.354;13.614;2022-12-11T15:52:00;23;21;
76421;PMS5003;65254;52.354;13.614;2022-12-11T15:56:00;20;18;
76421;PMS5003;65254;52.354;13.614;2022-12-11T16:00:00;19;17;
76421;PMS5003;65254;52.354;13.614;2022-12-11T16:04:05;19;17;
76421;PMS5003;65254;52.354;13.614;2022-12-11T16:08:00;21;19;
76421;PMS5003;65254;52.354;13.614;2022-12-11T16:12:00;21;19;
76421;PMS5003;65254;52.354;13.614;2022-12-11T16:16:00;20;18;
76421;PMS5003;65254;52.354;13.614;2022-12-11T16:20:00;19;17;
76421;PMS5003;65254;52.354;13.614;2022-12-11T16:24:00;19;17;
76421;PMS5003;65254;52.354;13.614;2022-12-11T16:28:00;19;17;
76421;PMS5003;65254;52.354;13.614;2022-12-11T16:32:00;20;18;
76421;PMS5003;65254;52.354;13.614;2022-12-11T16:36:00;19;17;
76421;PMS5003;65254;52.354;13.614;2022-12-11T16:40:00;19;17;
76421;PMS5003;65254;52.354;13.614;2022-12-11T16:44:00;20;18;
76421;PMS5003;65254;52.354;13.614;2022-12-11T16:48:02;19;17;
76421;PMS5003;65254;52.354;13.614;2022-12-11T16:52:00;18;16;
76421;PMS5003;65254;52.354;13.614;2022-12-11T16:56:00;19;17;
76421;PMS5003;65254;52.354;13.614;2022-12-11T17:00:00;19;17;
76421;PMS5003;65254;52.354;13.614;2022-12-11T17:04:00;19;17;
76421;PMS5003;65254;52.354;13.614;2022-12-11T17:08:00;19;17;
76421;PMS5003;65254;52.354;13.614;2022-12-11T17:12:01;29;26;
76421;PMS5003;65254;52.354;13.614;2022-12-11T17:16:02;21;19;
76421;PMS5003;65254;52.354;13.614;2022-12-11T17:20:00;24;21;
76421;PMS5003;65254;52.354;13.614;2022-12-11T17:24:00;19;17;
76421;PMS5003;65254;52.354;13.614;2022-12-11T17:28:00;26;23;
76421;PMS5003;65254;52.354;13.614;2022-12-11T17:32:00;24;22;
76421;PMS5003;65254;52.354;13.614;2022-12-11T17:36:01;22;20;
76421;PMS5003;65254;52.354;13.614;2022-12-11T17:40:00;21;19;
76421;PMS5003;65254;52.354;13.614;2022-12-11T17:44:00;20;18;
76421;PMS5003;65254;52.354;13.614;2022-12-11T17:48:00;20;18;
76421;PMS5003;65254;52.354;13.614;2022-12-11T17:52:00;19;17;
76421;PMS5003;65254;52.354;13.614;2022-12-11T17:56:01;20;18;
76421;PMS5003;65254;52.354;13.614;2022-12-11T18:00:00;20;18;
76421;PMS5003;65254;52.354;13.614;2022-12-11T18:04:01;21;19;
76421;PMS5003;65254;52.354;13.614;2022-12-11T18:08:00;20;18;
76421;PMS5003;65254;52.354;13.614;2022-12-11T18:12:00;18;16;
76421;PMS5003;65254;52.354;13.614;2022-12-11T18:16:01;19;17;
76421;PMS5003;65254;52.354;13.614;2022-12-11T18:20:00;18;16;
76421;PMS5003;65254;52.354;13.614;2022-12-11T18:24:01;18;16;
76421;PMS5003;65254;52.354;13.614;2022-12-11T18:28:00;18;16;
76421;PMS5003;65254;52.354;13.614;2022-12-11T18:32:00;19;17;
76421;PMS5003;65254;52.354;13.614;2022-12-11T18:36:00;18;16;
76421;PMS5003;65254;52.354;13.614;2022-12-11T18:40:00;19;17;
76421;PMS5003;65254;52.354;13.614;2022-12-11T18:44:05;18;16;
76421;PMS5003;65254;52.354;13.614;2022-12-11T18:48:00;18;16;
76421;PMS5003;65254;52.354;13.614;2022-12-11T18:52:00;19;17;
76421;PMS5003;65254;52.354;13.614;2022-12-11T18:56:04;19;17;
76421;PMS5003;65254;52.354;13.614;2022-12-11T19:00:00;20;18;
76421;PMS5003;65254;52.354;13.614;2022-12-11T19:04:04;19;17;
76421;PMS5003;65254;52.354;13.614;2022-12-11T19:08:01;18;16;
76421;PMS5003;65254;52.354;13.614;2022-12-11T19:12:00;19;17;
76421;PMS5003;65254;52.354;13.614;2022-12-11T19:16:00;19;17;
76421;PMS5003;65254;52.354;13.614;2022-12-11T19:20:11;18;16;
76421;PMS5003;65254;52.354;13.614;2022-12-11T19:24:00;18;16;
76421;PMS5003;65254;52.354;13.614;2022-12-11T19:28:00;18;16;
76421;PMS5003;65254;52.354;13.614;2022-12-11T19:32:01;19;17;
76421;PMS5003;65254;52.354;13.614;2022-12-11T19:36:01;18;16;
76421;PMS5003;65254;52.354;13.614;2022-12-11T19:40:00;20;18;
76421;PMS5003;65254;52.354;13.614;2022-12-11T19:44:00;18;16;
76421;PMS5003;65254;52.354;13.614;2022-12-11T19:48:00;19;17;
76421;PMS5003;65254;52.354;13.614;2022-12-11T19:52:00;19;17;
76421;PMS5003;65254;52.354;13.614;2022-12-11T19:56:00;18;16;
76421;PMS5003;65254;52.354;13.614;2022-12-11T20:00:00;17;15;
76421;PMS5003;65254;52.354;13.614;2022-12-11T20:04:02;19;17;
76421;PMS5003;65254;52.354;13.614;2022-12-11T20:08:10;19;17;
76421;PMS5003;65254;52.354;13.614;2022-12-11T20:12:00;18;16;
76421;PMS5003;65254;52.354;13.614;2022-12-11T20:16:03;18;16;
76421;PMS5003;65254;52.354;13.614;2022-12-11T20:20:00;17;15;
76421;PMS5003;65254;52.354;13.614;2022-12-11T20:24:00;18;16;
76421;PMS5003;65254;52.354;13.614;2022-12-11T20:28:00;17;15;
76421;PMS5003;65254;52.354;13.614;2022-12-11T20:32:00;16;14;
76421;PMS5003;65254;52.354;13.614;2022-12-11T20:36:00;17;15;
76421;PMS5003;65254;52.354;13.614;2022-12-11T20:40:00;17;15;
76421;PMS5003;65254;52.354;13.614;2022-12-11T20:44:00;16;14;
76421;PMS5003;65254;52.354;13.614;2022-12-11T20:48:00;15;14;
76421;PMS5003;65254;52.354;13.614;2022-12-11T20:52:00;15;14;
76421;PMS5003;65254;52.354;13.614;2022-12-11T20:56:00;15;14;
76421;PMS5003;65254;52.354;13.614;2022-12-11T21:00:00;17;15;
76421;PMS5003;65254;52.354;13.614;2022-12-11T21:04:00;16;14;
76421;PMS5003;65254;52.354;13.614;2022-12-11T21:08:00;17;15;
76421;PMS5003;65254;52.354;13.614;2022-12-11T21:12:00;15;14;
76421;PMS5003;65254;52.354;13.614;2022-12-11T21:16:03;17;15;
76421;PMS5003;65254;52.354;13.614;2022-12-11T21:20:00;15;14;
76421;PMS5003;65254;52.354;13.614;2022-12-11T21:24:00;17;15;
76421;PMS5003;65254;52.354;13.614;2022-12-11T21:28:00;17;15;
76421;PMS5003;65254;52.354;13.614;2022-12-11T21:32:00;16;14;
76421;PMS5003;65254;52.354;13.614;2022-12-11T21:36:00;17;15;
76421;PMS5003;65254;52.354;13.614;2022-12-11T21:40:00;17;15;
76421;PMS5003;65254;52.354;13.614;2022-12-11T21:44:10;17;15;
76421;PMS5003;65254;52.354;13.614;2022-12-11T21:48:00;17;15;
76421;PMS5003;65254;52.354;13.614;2022-12-11T21:52:00;19;17;
76421;PMS5003;65254;52.354;13.614;2022-12-11T21:56:04;18;16;
76421;PMS5003;65254;52.354;13.614;2022-12-11T22:00:00;19;17;
76421;PMS5003;65254;52.354;13.614;2022-12-11T22:04:00;18;16;
76421;PMS5003;65254;52.354;13.614;2022-12-11T22:08:00;18;16;
76421;PMS5003;65254;52.354;13.614;2022-12-11T22:12:00;18;16;
76421;PMS5003;65254;52.354;13.614;2022-12-11T22:16:00;18;16;
76421;PMS5003;65254;52.354;13.614;2022-12-11T22:20:00;19;17;
76421;PMS5003;65254;52.354;13.614;2022-12-11T22:24:00;18;16;
76421;PMS5003;65254;52.354;13.614;2022-12-11T22:28:00;18;16;
76421;PMS5003;65254;52.354;13.614;2022-12-11T22:32:00;19;17;
76421;PMS5003;65254;52.354;13.614;2022-12-11T22:36:00;20;18;
76421;PMS5003;65254;52.354;13.614;2022-12-11T22:40:00;19;17;
76421;PMS5003;65254;52.354;13.614;2022-12-11T22:44:00;20;18;
76421;PMS5003;65254;52.354;13.614;2022-12-11T22:48:00;19;17;
76421;PMS5003;65254;52.354;13.614;2022-12-11T22:52:00;19;17;
76421;PMS5003;65254;52.354;13.614;2022-12-11T22:56:02;19;17;
76421;PMS5003;65254;52.354;13.614;2022-12-11T23:00:00;18;16;
76421;PMS5003;65254;52.354;13.614;2022-12-11T23:04:00;20;18;
76421;PMS5003;65254;52.354;13.614;2022-12-11T23:08:00;19;17;
76421;PMS5003;65254;52.354;13.614;2022-12-11T23:12:00;19;17;
76421;PMS5003;65254;52.354;13.614;2022-12-11T23:16:00;19;17;
76421;PMS5003;65254;52.354;13.614;2022-12-11T23:20:00;20;18;
76421;PMS5003;65254;52.354;13.614;2022-12-11T23:24:00;19;17;
76421;PMS5003;65254;52.354;13.614;2022-12-11T23:28:00;18;16;
76421;PMS5003;65254;52.354;13.614;2022-12-11T23:32:00;20;18;
76421;PMS5003;65254;52.354;13.614;2022-12-11T23:36:00;20;18;
76421;PMS5003;65254;52.354;13.614;2022-12-11T23:40:00;19;17;
76421;PMS5003;65254;52.354;13.614;2022-12-11T23:44:00;19;17;
76421;PMS5003;65254;52.354;13.614;2022-12-11T23:48:00;20;18;
76421;PMS5003;65254;52.354;13.614;2022-12-11T23:52:00;19;17;
76421;PMS5003;65254;52.354;13.614;2022-12-11T23:56:03;19;17;
